createdAt,value
2023-02-01T00:01:47.046Z,98080.50
2023-02-01T00:04:15.314Z,98082.94
2023-02-01T00:06:43.632Z,98083.09
2023-02-01T00:09:14.531Z,98079.44
2023-02-01T00:11:43.042Z,98080.06
2023-02-01T00:14:11.674Z,98084.94
2023-02-01T00:16:40.238Z,98084.34
2023-02-01T00:19:12.679Z,98089.25
2023-02-01T00:21:41.056Z,98089.03
2023-02-01T00:24:11.005Z,98089.66
2023-02-01T00:26:43.852Z,98097.78
2023-02-01T00:29:15.041Z,98096.59
2023-02-01T00:31:44.387Z,98089.69
2023-02-01T00:34:14.764Z,98088.50
2023-02-01T00:36:43.346Z,98087.28
2023-02-01T00:39:12.599Z,98092.56
2023-02-01T00:41:42.640Z,98084.25
2023-02-01T00:44:10.945Z,98082.41
2023-02-01T00:46:39.659Z,98086.06
2023-02-01T00:49:10.180Z,98092.78
2023-02-01T00:51:38.542Z,98087.69
2023-02-01T00:54:06.939Z,98082.41
2023-02-01T00:56:35.269Z,98075.31
2023-02-01T00:59:04.912Z,98083.84
2023-02-01T01:01:34.111Z,98078.34
2023-02-01T01:04:02.657Z,98074.72
2023-02-01T01:06:34.978Z,98080.59
2023-02-01T01:09:05.997Z,98082.22
2023-02-01T01:11:48.852Z,98086.47
2023-02-01T01:14:18.540Z,98091.75
2023-02-01T01:16:46.834Z,98090.94
2023-02-01T01:19:16.022Z,98083.22
2023-02-01T01:21:44.213Z,98095.81
2023-02-01T01:24:12.489Z,98095.41
2023-02-01T01:26:40.964Z,98091.16
2023-02-01T01:29:11.508Z,98101.91
2023-02-01T01:31:42.709Z,98087.94
2023-02-01T01:34:11.174Z,98076.97
2023-02-01T01:36:39.373Z,98082.03
2023-02-01T01:39:08.769Z,98087.50
2023-02-01T01:41:37.163Z,98081.03
2023-02-01T01:44:07.531Z,98082.00
2023-02-01T01:46:39.008Z,98078.34
2023-02-01T01:49:14.006Z,98074.91
2023-02-01T01:51:46.890Z,98080.59
2023-02-01T01:54:19.664Z,98083.84
2023-02-01T01:56:53.682Z,98078.56
2023-02-01T01:59:23.452Z,98074.50
2023-02-01T02:01:51.978Z,98076.13
2023-02-01T02:04:22.224Z,98079.94
2023-02-01T02:06:57.545Z,98070.63
2023-02-01T02:09:25.997Z,98070.41
2023-02-01T02:11:54.586Z,98071.22
2023-02-01T02:14:25.240Z,98075.69
2023-02-01T02:17:09.791Z,98066.91
2023-02-01T02:20:10.735Z,98068.94
2023-02-01T02:23:27.878Z,98058.19
2023-02-01T02:26:24.918Z,98051.69
2023-02-01T02:29:29.553Z,98051.84
2023-02-01T02:32:16.312Z,98054.06
2023-02-01T02:34:58.056Z,98052.66
2023-02-01T02:37:35.749Z,98043.72
2023-02-01T02:40:13.011Z,98042.47
2023-02-01T02:43:05.195Z,98046.75
2023-02-01T02:46:19.243Z,98044.09
2023-02-01T02:48:57.341Z,98042.47
2023-02-01T02:51:50.556Z,98053.41
2023-02-01T02:54:40.127Z,98054.88
2023-02-01T02:57:30.532Z,98059.56
2023-02-01T03:00:19.140Z,98076.22
2023-02-01T03:03:08.292Z,98069.16
2023-02-01T03:05:37.727Z,98079.28
2023-02-01T03:08:13.209Z,98079.72
2023-02-01T03:10:54.341Z,98082.56
2023-02-01T03:13:32.383Z,98070.56
2023-02-01T03:16:07.097Z,98077.25
2023-02-01T03:18:41.041Z,98085.16
2023-02-01T03:21:15.867Z,98073.56
2023-02-01T03:23:48.393Z,98083.09
2023-02-01T03:26:19.304Z,98075.19
2023-02-01T03:28:55.776Z,98078.25
2023-02-01T03:31:44.936Z,98082.50
2023-02-01T03:34:14.030Z,98080.88
2023-02-01T03:36:50.621Z,98079.28
2023-02-01T03:39:28.014Z,98077.88
2023-02-01T03:41:59.932Z,98072.97
2023-02-01T03:44:33.450Z,98083.09
2023-02-01T03:47:13.512Z,98078.66
2023-02-01T03:49:46.044Z,98084.31
2023-02-01T03:52:19.672Z,98085.75
2023-02-01T03:54:54.475Z,98086.56
2023-02-01T03:57:29.139Z,98083.91
2023-02-01T04:00:08.264Z,98080.25
2023-02-01T04:02:36.688Z,98082.44
2023-02-01T04:05:05.360Z,98074.94
2023-02-01T04:07:33.781Z,98077.56
2023-02-01T04:10:04.636Z,98077.16
2023-02-01T04:12:32.929Z,98071.63
2023-02-01T04:15:01.159Z,98089.06
2023-02-01T04:17:29.473Z,98073.59
2023-02-01T04:19:57.654Z,98079.47
2023-02-01T04:22:25.953Z,98075.41
2023-02-01T04:24:57.116Z,98082.09
2023-02-01T04:27:26.780Z,98077.41
2023-02-01T04:29:56.950Z,98075.94
2023-02-01T04:32:26.362Z,98069.66
2023-02-01T04:35:00.890Z,98069.03
2023-02-01T04:37:29.986Z,98068.69
2023-02-01T04:39:58.464Z,98066.06
2023-02-01T04:42:28.382Z,98076.22
2023-02-01T04:44:56.872Z,98075.47
2023-02-01T04:47:25.450Z,98074.25
2023-02-01T04:50:00.902Z,98077.16
2023-02-01T04:52:29.480Z,98072.69
2023-02-01T04:54:59.397Z,98073.16
2023-02-01T04:57:30.231Z,98073.72
2023-02-01T04:59:58.618Z,98075.56
2023-02-01T05:02:26.996Z,98077.38
2023-02-01T05:04:57.937Z,98077.97
2023-02-01T05:07:26.403Z,98081.03
2023-02-01T05:09:54.991Z,98091.97
2023-02-01T05:12:52.041Z,98090.97
2023-02-01T05:15:21.906Z,98093.97
2023-02-01T05:17:50.198Z,98098.25
2023-02-01T05:20:19.517Z,98092.16
2023-02-01T05:22:47.999Z,98101.88
2023-02-01T05:25:16.503Z,98102.69
2023-02-01T05:27:45.296Z,98105.34
2023-02-01T05:30:15.702Z,98104.09
2023-02-01T05:32:45.883Z,98105.28
2023-02-01T05:35:14.090Z,98110.38
2023-02-01T05:37:45.106Z,98105.09
2023-02-01T05:40:14.295Z,98098.19
2023-02-01T05:42:44.994Z,98091.06
2023-02-01T05:45:13.617Z,98099.59
2023-02-01T05:47:45.891Z,98092.47
2023-02-01T05:50:14.363Z,98095.94
2023-02-01T05:52:43.138Z,98094.31
2023-02-01T05:55:11.822Z,98097.16
2023-02-01T05:57:40.214Z,98096.13
2023-02-01T06:00:10.001Z,98099.78
2023-02-01T06:02:38.788Z,98098.19
2023-02-01T06:05:14.597Z,98086.63
2023-02-01T06:07:43.359Z,98099.44
2023-02-01T06:10:12.885Z,98102.06
2023-02-01T06:12:43.876Z,98108.59
2023-02-01T06:15:13.263Z,98104.94
2023-02-01T06:17:42.510Z,98106.97
2023-02-01T06:21:09.720Z,98107.78
2023-02-01T06:23:39.498Z,98107.63
2023-02-01T06:26:11.863Z,98114.28
2023-02-01T06:28:40.498Z,98115.34
2023-02-01T06:31:09.526Z,98126.91
2023-02-01T06:33:38.547Z,98125.28
2023-02-01T06:36:08.775Z,98129.97
2023-02-01T06:38:39.836Z,98120.03
2023-02-01T06:41:11.358Z,98126.94
2023-02-01T06:43:39.628Z,98123.28
2023-02-01T06:46:09.679Z,98122.84
2023-02-01T06:48:38.454Z,98126.47
2023-02-01T06:51:07.246Z,98132.16
2023-02-01T06:53:35.976Z,98130.53
2023-02-01T06:56:06.388Z,98126.25
2023-02-01T06:58:35.567Z,98138.81
2023-02-01T07:01:08.240Z,98132.50
2023-02-01T07:03:36.908Z,98129.28
2023-02-01T07:06:05.757Z,98135.75
2023-02-01T07:08:36.798Z,98134.53
2023-02-01T07:11:07.188Z,98131.69
2023-02-01T07:13:39.336Z,98129.84
2023-02-01T07:16:12.767Z,98132.09
2023-02-01T07:18:41.344Z,98131.63
2023-02-01T07:21:10.183Z,98133.66
2023-02-01T07:23:40.962Z,98128.34
2023-02-01T07:26:14.246Z,98124.84
2023-02-01T07:28:43.496Z,98129.91
2023-02-01T07:31:14.608Z,98132.28
2023-02-01T07:33:43.125Z,98138.53
2023-02-01T07:36:16.337Z,98136.88
2023-02-01T07:38:45.007Z,98136.25
2023-02-01T07:41:14.845Z,98139.09
2023-02-01T07:43:43.167Z,98133.22
2023-02-01T07:46:16.417Z,98135.44
2023-02-01T07:48:44.880Z,98133.81
2023-02-01T07:51:15.616Z,98140.13
2023-02-01T07:53:44.636Z,98144.41
2023-02-01T07:56:19.133Z,98139.09
2023-02-01T07:58:50.399Z,98138.69
2023-02-01T08:01:21.668Z,98132.94
2023-02-01T08:03:50.469Z,98135.97
2023-02-01T08:06:20.613Z,98141.06
2023-02-01T08:08:49.047Z,98146.53
2023-02-01T08:11:20.415Z,98142.84
2023-02-01T08:13:50.522Z,98141.03
2023-02-01T08:16:20.544Z,98143.22
2023-02-01T08:18:48.981Z,98147.28
2023-02-01T08:21:21.171Z,98145.44
2023-02-01T08:23:49.384Z,98148.47
2023-02-01T08:26:21.264Z,98144.81
2023-02-01T08:28:52.406Z,98142.75
2023-02-01T08:31:23.989Z,98152.69
2023-02-01T08:33:57.258Z,98154.09
2023-02-01T08:36:29.056Z,98156.09
2023-02-01T08:38:57.551Z,98150.59
2023-02-01T08:41:30.312Z,98149.91
2023-02-01T08:43:59.476Z,98157.84
2023-02-01T08:46:29.445Z,98158.25
2023-02-01T08:48:57.976Z,98160.69
2023-02-01T08:51:26.275Z,98161.28
2023-02-01T08:53:54.648Z,98159.44
2023-02-01T08:56:23.373Z,98158.19
2023-02-01T08:58:53.072Z,98156.13
2023-02-01T09:01:21.437Z,98152.44
2023-02-01T09:03:49.753Z,98156.50
2023-02-01T09:06:18.672Z,98153.06
2023-02-01T09:08:47.283Z,98149.16
2023-02-01T09:11:18.788Z,98151.59
2023-02-01T09:13:47.353Z,98149.97
2023-02-01T09:16:17.489Z,98148.94
2023-02-01T09:18:56.070Z,98151.00
2023-02-01T09:21:30.366Z,98147.75
2023-02-01T09:23:58.667Z,98145.91
2023-02-01T09:26:32.164Z,98142.03
2023-02-01T09:29:01.372Z,98151.16
2023-02-01T09:31:31.378Z,98152.75
2023-02-01T09:33:59.796Z,98150.38
2023-02-01T09:36:30.188Z,98155.06
2023-02-01T09:38:59.578Z,98159.13
2023-02-01T09:41:46.373Z,98152.53
2023-02-01T09:44:43.801Z,98155.56
2023-02-01T09:47:17.804Z,98155.97
2023-02-01T09:49:54.946Z,98153.31
2023-02-01T09:52:32.003Z,98153.69
2023-02-01T09:55:05.150Z,98159.34
2023-02-01T09:57:47.622Z,98156.69
2023-02-01T10:00:23.024Z,98158.31
2023-02-01T10:02:53.553Z,98157.06
2023-02-01T10:05:47.428Z,98147.66
2023-02-01T10:08:27.894Z,98151.94
2023-02-01T10:11:05.568Z,98150.66
2023-02-01T10:13:47.547Z,98148.41
2023-02-01T10:16:26.597Z,98151.25
2023-02-01T10:19:20.442Z,98158.59
2023-02-01T10:21:58.757Z,98150.53
2023-02-01T10:24:43.688Z,98149.28
2023-02-01T10:27:19.431Z,98162.31
2023-02-01T10:29:53.944Z,98164.38
2023-02-01T10:32:25.768Z,98159.88
2023-02-01T10:35:00.526Z,98156.22
2023-02-01T10:37:32.523Z,98162.06
2023-02-01T10:40:06.750Z,98169.78
2023-02-01T10:42:35.215Z,98166.13
2023-02-01T10:45:08.030Z,98172.22
2023-02-01T10:47:37.245Z,98170.56
2023-02-01T10:50:18.889Z,98173.72
2023-02-01T10:52:53.259Z,98171.22
2023-02-01T10:55:38.359Z,98171.72
2023-02-01T10:58:10.140Z,98169.69
2023-02-01T11:00:46.581Z,98175.69
2023-02-01T11:03:45.380Z,98176.06
2023-02-01T11:06:28.167Z,98172.59
2023-02-01T11:08:58.832Z,98177.69
2023-02-01T11:11:27.702Z,98178.22
2023-02-01T11:13:58.852Z,98185.13
2023-02-01T11:16:38.632Z,98186.06
2023-02-01T11:19:09.766Z,98183.22
2023-02-01T11:21:46.338Z,98186.28
2023-02-01T11:24:24.657Z,98173.41
2023-02-01T11:26:54.298Z,98176.44
2023-02-01T11:29:30.848Z,98176.59
2023-02-01T11:32:01.300Z,98184.78
2023-02-01T11:34:36.946Z,98182.78
2023-02-01T11:37:12.419Z,98181.75
2023-02-01T11:39:41.542Z,98187.47
2023-02-01T11:42:16.360Z,98185.00
2023-02-01T11:44:46.605Z,98182.69
2023-02-01T11:47:25.541Z,98188.78
2023-02-01T11:49:55.698Z,98193.88
2023-02-01T11:52:45.995Z,98180.78
2023-02-01T11:55:41.173Z,98186.88
2023-02-01T11:58:23.198Z,98188.50
2023-02-01T12:01:09.836Z,98197.13
2023-02-01T12:04:11.107Z,98201.00
2023-02-01T12:06:50.763Z,98193.16
2023-02-01T12:09:40.548Z,98202.56
2023-02-01T12:12:18.675Z,98203.91
2023-02-01T12:15:09.499Z,98200.88
2023-02-01T12:17:53.814Z,98200.50
2023-02-01T12:20:40.454Z,98194.84
2023-02-01T12:23:27.472Z,98197.50
2023-02-01T12:26:08.713Z,98195.28
2023-02-01T12:28:54.962Z,98197.13
2023-02-01T12:31:52.238Z,98199.19
2023-02-01T12:34:38.377Z,98199.81
2023-02-01T12:37:17.539Z,98205.72
2023-02-01T12:39:53.918Z,98206.53
2023-02-01T12:42:28.687Z,98220.22
2023-02-01T12:45:03.004Z,98220.50
2023-02-01T12:47:37.999Z,98222.25
2023-02-01T12:50:15.215Z,98226.34
2023-02-01T12:52:49.348Z,98223.97
2023-02-01T12:55:24.098Z,98228.88
2023-02-01T12:57:57.986Z,98228.97
2023-02-01T13:00:34.665Z,98228.19
2023-02-01T13:03:13.899Z,98231.25
2023-02-01T13:05:51.493Z,98229.91
2023-02-01T13:08:25.911Z,98240.78
2023-02-01T13:11:02.705Z,98234.78
2023-02-01T13:13:40.890Z,98229.75
2023-02-01T13:16:19.463Z,98237.47
2023-02-01T13:18:52.392Z,98237.06
2023-02-01T13:21:26.316Z,98243.78
2023-02-01T13:23:55.567Z,98247.84
2023-02-01T13:26:23.776Z,98240.34
2023-02-01T13:28:59.489Z,98248.72
2023-02-01T13:31:50.590Z,98249.16
2023-02-01T13:34:48.422Z,98260.81
2023-02-01T13:37:32.373Z,98259.22
2023-02-01T13:40:18.948Z,98254.59
2023-02-01T13:42:52.184Z,98257.47
2023-02-01T13:45:25.711Z,98271.50
2023-02-01T13:47:59.033Z,98270.28
2023-02-01T13:50:31.393Z,98278.41
2023-02-01T13:53:03.413Z,98272.72
2023-02-01T13:55:35.175Z,98275.16
2023-02-01T13:58:08.071Z,98279.84
2023-02-01T14:00:39.373Z,98283.28
2023-02-01T14:03:16.911Z,98288.59
2023-02-01T14:06:02.604Z,98291.66
2023-02-01T14:09:08.136Z,98303.44
2023-02-01T14:11:51.717Z,98303.03
2023-02-01T14:14:52.464Z,98304.44
2023-02-01T14:17:40.861Z,98307.47
2023-02-01T14:20:47.233Z,98305.66
2023-02-01T14:23:23.578Z,98312.75
2023-02-01T14:26:17.136Z,98313.38
2023-02-01T14:29:02.964Z,98318.03
2023-02-01T14:31:40.225Z,98307.88
2023-02-01T14:34:18.360Z,98324.94
2023-02-01T14:36:50.685Z,98322.13
2023-02-01T14:39:42.186Z,98329.03
2023-02-01T14:42:24.719Z,98326.59
2023-02-01T14:44:59.063Z,98336.13
2023-02-01T14:47:34.751Z,98339.38
2023-02-01T14:50:19.226Z,98345.47
2023-02-01T14:52:50.133Z,98345.91
2023-02-01T14:55:25.999Z,98349.13
2023-02-01T14:57:57.743Z,98340.56
2023-02-01T15:00:29.723Z,98353.97
2023-02-01T15:03:38.523Z,98357.22
2023-02-01T15:06:23.396Z,98368.38
2023-02-01T15:08:55.795Z,98365.31
2023-02-01T15:11:24.523Z,98369.16
2023-02-01T15:13:58.338Z,98381.09
2023-02-01T15:16:28.251Z,98391.03
2023-02-01T15:19:16.224Z,98379.41
2023-02-01T15:21:50.039Z,98387.09
2023-02-01T15:24:24.809Z,98392.13
2023-02-01T15:26:54.344Z,98388.47
2023-02-01T15:29:26.702Z,98400.22
2023-02-01T15:31:55.846Z,98397.34
2023-02-01T15:34:24.424Z,98406.25
2023-02-01T15:37:02.923Z,98401.41
2023-02-01T15:39:34.084Z,98401.16
2023-02-01T15:42:11.595Z,98404.97
2023-02-01T15:48:29.866Z,98416.34
2023-02-01T15:51:00.113Z,98422.22
2023-02-01T15:53:32.435Z,98430.31
2023-02-01T15:56:06.915Z,98442.47
2023-02-01T15:58:39.243Z,98440.84
2023-02-01T16:01:15.825Z,98445.28
2023-02-01T16:03:48.426Z,98445.28
2023-02-01T16:06:31.746Z,98444.22
2023-02-01T16:09:15.949Z,98451.75
2023-02-01T16:11:51.167Z,98458.22
2023-02-01T16:14:19.899Z,98463.06
2023-02-01T16:16:48.617Z,98457.38
2023-02-01T16:19:20.898Z,98460.19
2023-02-01T16:21:49.640Z,98456.50
2023-02-01T16:24:24.320Z,98466.22
2023-02-01T16:26:53.080Z,98477.53
2023-02-01T16:29:22.803Z,98471.44
2023-02-01T16:31:52.089Z,98471.63
2023-02-01T16:34:20.898Z,98473.91
2023-02-01T16:36:54.046Z,98479.53
2023-02-01T16:39:24.281Z,98480.72
2023-02-01T16:41:53.277Z,98475.47
2023-02-01T16:44:21.881Z,98476.03
2023-02-01T16:46:51.303Z,98473.16
2023-02-01T16:49:23.479Z,98483.06
2023-02-01T16:51:58.649Z,98481.34
2023-02-01T16:54:31.304Z,98489.47
2023-02-01T16:56:59.639Z,98490.66
2023-02-01T16:59:32.056Z,98490.47
2023-02-01T17:02:00.342Z,98497.97
2023-02-01T17:04:41.722Z,98497.22
2023-02-01T17:07:15.058Z,98501.59
2023-02-01T17:09:45.951Z,98510.94
2023-02-01T17:12:23.956Z,98515.22
2023-02-01T17:14:55.330Z,98506.50
2023-02-01T17:17:38.075Z,98511.41
2023-02-01T17:20:09.614Z,98516.22
2023-02-01T17:22:38.260Z,98527.69
2023-02-01T17:25:16.037Z,98526.97
2023-02-01T17:27:45.566Z,98536.50
2023-02-01T17:30:14.814Z,98539.09
2023-02-01T17:32:43.793Z,98538.09
2023-02-01T17:35:20.332Z,98537.47
2023-02-01T17:37:49.624Z,98542.16
2023-02-01T17:40:22.313Z,98537.50
2023-02-01T17:42:52.339Z,98554.75
2023-02-01T17:45:31.343Z,98556.75
2023-02-01T17:48:00.164Z,98557.16
2023-02-01T17:50:32.004Z,98560.50
2023-02-01T17:53:00.481Z,98558.63
2023-02-01T17:55:30.845Z,98560.81
2023-02-01T17:57:59.144Z,98562.81
2023-02-01T18:00:27.630Z,98567.44
2023-02-01T18:02:57.196Z,98570.53
2023-02-01T18:05:43.191Z,98579.88
2023-02-01T18:08:11.756Z,98584.31
2023-02-01T18:10:41.480Z,98592.38
2023-02-01T18:13:12.164Z,98597.56
2023-02-01T18:15:40.913Z,98596.31
2023-02-01T18:18:09.242Z,98599.94
2023-02-01T18:20:38.312Z,98595.69
2023-02-01T18:23:06.673Z,98601.00
2023-02-01T18:25:38.318Z,98591.06
2023-02-01T18:28:08.182Z,98597.03
2023-02-01T18:30:38.208Z,98597.84
2023-02-01T18:33:07.032Z,98598.50
2023-02-01T18:35:35.649Z,98599.94
2023-02-01T18:38:06.314Z,98605.03
2023-02-01T18:40:38.115Z,98601.31
2023-02-01T18:43:07.989Z,98614.72
2023-02-01T18:45:38.451Z,98615.91
2023-02-01T18:48:08.880Z,98616.72
2023-02-01T18:50:42.188Z,98623.44
2023-02-01T18:53:14.615Z,98625.78
2023-02-01T18:55:43.249Z,98627.44
2023-02-01T18:58:16.114Z,98629.97
2023-02-01T19:00:45.685Z,98640.28
2023-02-01T19:03:14.263Z,98642.09
2023-02-01T19:05:42.545Z,98646.38
2023-02-01T19:08:14.613Z,98646.53
2023-02-01T19:10:44.073Z,98663.59
2023-02-01T19:13:14.558Z,98656.00
2023-02-01T19:15:45.950Z,98668.59
2023-02-01T19:18:16.220Z,98677.41
2023-02-01T19:20:46.153Z,98680.88
2023-02-01T19:23:15.093Z,98674.59
2023-02-01T19:25:45.798Z,98680.50
2023-02-01T19:28:16.421Z,98688.41
2023-02-01T19:30:45.230Z,98701.28
2023-02-01T19:33:13.726Z,98697.00
2023-02-01T19:35:42.011Z,98706.72
2023-02-01T19:38:11.489Z,98707.53
2023-02-01T19:40:39.846Z,98707.44
2023-02-01T19:43:09.146Z,98710.50
2023-02-01T19:45:39.035Z,98719.59
2023-02-01T19:48:10.223Z,98721.03
2023-02-01T19:50:40.242Z,98731.03
2023-02-01T19:53:09.126Z,98736.13
2023-02-01T19:55:37.690Z,98744.31
2023-02-01T19:58:06.429Z,98744.91
2023-02-01T20:00:35.047Z,98742.56
2023-02-01T20:03:04.998Z,98739.75
2023-02-01T20:05:34.238Z,98744.22
2023-02-01T20:08:02.563Z,98746.84
2023-02-01T20:10:30.823Z,98750.47
2023-02-01T20:13:02.361Z,98750.66
2023-02-01T20:15:30.671Z,98757.91
2023-02-01T20:17:59.381Z,98753.38
2023-02-01T20:20:32.188Z,98761.25
2023-02-01T20:23:02.492Z,98766.34
2023-02-01T20:25:31.805Z,98770.31
2023-02-01T20:28:01.823Z,98774.41
2023-02-01T20:30:30.179Z,98778.75
2023-02-01T20:32:58.411Z,98787.44
2023-02-01T20:35:26.954Z,98796.16
2023-02-01T20:37:57.247Z,98792.44
2023-02-01T20:40:27.562Z,98800.13
2023-02-01T20:42:58.068Z,98809.50
2023-02-01T20:45:27.308Z,98805.69
2023-02-01T20:47:55.711Z,98814.31
2023-02-01T20:50:25.322Z,98810.03
2023-02-01T20:52:53.540Z,98821.56
2023-02-01T20:55:25.530Z,98828.06
2023-02-01T20:57:55.297Z,98839.91
2023-02-01T21:00:23.819Z,98846.78
2023-02-01T21:02:52.450Z,98845.81
2023-02-01T21:05:20.802Z,98845.63
2023-02-01T21:07:49.124Z,98852.88
2023-02-01T21:10:17.363Z,98862.41
2023-02-01T21:12:47.384Z,98861.41
2023-02-01T21:15:16.910Z,98867.50
2023-02-01T21:17:45.172Z,98869.00
2023-02-01T21:20:14.803Z,98883.97
2023-02-01T21:22:43.001Z,98889.56
2023-02-01T21:25:11.677Z,98900.16
2023-02-01T21:27:39.992Z,98895.97
2023-02-01T21:30:12.592Z,98905.34
2023-02-01T21:32:42.209Z,98895.06
2023-02-01T21:35:11.052Z,98907.56
2023-02-01T21:37:40.167Z,98910.34
2023-02-01T21:40:09.213Z,98918.06
2023-02-01T21:42:39.320Z,98913.81
2023-02-01T21:45:10.582Z,98927.28
2023-02-01T21:47:41.165Z,98931.38
2023-02-01T21:50:16.221Z,98928.75
2023-02-01T21:52:44.945Z,98940.06
2023-02-01T21:55:25.072Z,98939.53
2023-02-01T21:57:53.634Z,98943.34
2023-02-01T22:00:45.869Z,98946.50
2023-02-01T22:03:15.842Z,98958.50
2023-02-01T22:05:44.063Z,98966.06
2023-02-01T22:08:12.290Z,98969.19
2023-02-01T22:10:42.223Z,98971.81
2023-02-01T22:13:10.518Z,98974.00
2023-02-01T22:15:38.917Z,98974.97
2023-02-01T22:18:08.521Z,98974.97
2023-02-01T22:20:39.020Z,98981.06
2023-02-01T22:23:07.652Z,98983.38
2023-02-01T22:25:35.855Z,98990.59
2023-02-01T22:28:30.986Z,99001.78
2023-02-01T22:30:52.691Z,98993.88
2023-02-01T22:33:21.219Z,99006.69
2023-02-01T22:35:51.022Z,98996.34
2023-02-01T22:38:21.862Z,99008.50
2023-02-01T22:40:55.867Z,99029.91
2023-02-01T22:43:24.671Z,99032.03
2023-02-01T22:45:53.402Z,99036.31
2023-02-01T22:48:22.954Z,99041.94
2023-02-01T22:50:52.758Z,99048.16
2023-02-01T22:53:20.925Z,99051.13
2023-02-01T22:55:49.159Z,99049.97
2023-02-01T22:58:17.421Z,99053.88
2023-02-01T23:00:47.124Z,99058.50
2023-02-01T23:03:17.963Z,99060.47
2023-02-01T23:05:46.234Z,99059.34
2023-02-01T23:08:15.862Z,99068.69
2023-02-01T23:10:44.166Z,99079.53
2023-02-01T23:13:12.426Z,99080.84
2023-02-01T23:15:40.978Z,99095.28
2023-02-01T23:18:09.304Z,99088.72
2023-02-01T23:20:38.130Z,99089.56
2023-02-01T23:23:06.341Z,99094.47
2023-02-01T23:25:35.999Z,99089.84
2023-02-01T23:28:04.294Z,99110.56
2023-02-01T23:30:33.032Z,99105.13
2023-02-01T23:33:01.381Z,99120.91
2023-02-01T23:35:29.637Z,99111.38
2023-02-01T23:37:57.958Z,99122.06
2023-02-01T23:40:26.170Z,99122.72
2023-02-01T23:43:09.738Z,99119.09
2023-02-01T23:45:37.940Z,99128.94
2023-02-01T23:48:07.975Z,99127.31
2023-02-01T23:50:36.152Z,99139.13
2023-02-01T23:53:04.331Z,99132.75
2023-02-01T23:55:32.572Z,99140.94
2023-02-01T23:58:02.248Z,99145.22
